sensor_id;sensor_type;location;lat;lon;timestamp;P1;durP1;ratioP1;P2;durP2;ratioP2
38615;SDS011;24370;51.986;4.666;2023-11-21T00:00:43;15.23;;;5.97;;
38615;SDS011;24370;51.986;4.666;2023-11-21T00:03:10;10.77;;;5.37;;
38615;SDS011;24370;51.986;4.666;2023-11-21T00:05:39;14.97;;;4.93;;
38615;SDS011;24370;51.986;4.666;2023-11-21T00:08:06;12.77;;;4.30;;
38615;SDS011;24370;51.986;4.666;2023-11-21T00:10:33;15.00;;;5.00;;
38615;SDS011;24370;51.986;4.666;2023-11-21T00:12:59;10.47;;;5.30;;
38615;SDS011;24370;51.986;4.666;2023-11-21T00:15:27;6.60;;;4.27;;
38615;SDS011;24370;51.986;4.666;2023-11-21T00:17:53;11.27;;;4.40;;
38615;SDS011;24370;51.986;4.666;2023-11-21T00:20:18;8.10;;;4.13;;
38615;SDS011;24370;51.986;4.666;2023-11-21T00:22:43;6.43;;;3.27;;
38615;SDS011;24370;51.986;4.666;2023-11-21T00:25:09;6.73;;;3.60;;
38615;SDS011;24370;51.986;4.666;2023-11-21T00:27:35;15.67;;;4.37;;
38615;SDS011;24370;51.986;4.666;2023-11-21T00:30:01;6.33;;;3.40;;
38615;SDS011;24370;51.986;4.666;2023-11-21T00:32:26;7.20;;;3.83;;
38615;SDS011;24370;51.986;4.666;2023-11-21T00:34:52;6.87;;;3.73;;
38615;SDS011;24370;51.986;4.666;2023-11-21T00:37:17;8.10;;;3.70;;
38615;SDS011;24370;51.986;4.666;2023-11-21T00:39:42;8.47;;;3.30;;
38615;SDS011;24370;51.986;4.666;2023-11-21T00:42:08;8.77;;;4.03;;
38615;SDS011;24370;51.986;4.666;2023-11-21T00:44:37;6.73;;;3.63;;
38615;SDS011;24370;51.986;4.666;2023-11-21T00:47:03;6.40;;;3.30;;
38615;SDS011;24370;51.986;4.666;2023-11-21T00:49:28;8.73;;;4.17;;
38615;SDS011;24370;51.986;4.666;2023-11-21T00:51:54;8.07;;;3.97;;
38615;SDS011;24370;51.986;4.666;2023-11-21T00:54:19;8.03;;;3.43;;
38615;SDS011;24370;51.986;4.666;2023-11-21T00:56:44;9.50;;;3.83;;
38615;SDS011;24370;51.986;4.666;2023-11-21T00:59:12;8.00;;;4.10;;
38615;SDS011;24370;51.986;4.666;2023-11-21T01:01:37;11.00;;;4.33;;
38615;SDS011;24370;51.986;4.666;2023-11-21T01:04:03;9.10;;;4.53;;
38615;SDS011;24370;51.986;4.666;2023-11-21T01:06:28;8.10;;;3.80;;
38615;SDS011;24370;51.986;4.666;2023-11-21T01:08:54;10.53;;;3.93;;
38615;SDS011;24370;51.986;4.666;2023-11-21T01:11:20;16.33;;;4.80;;
38615;SDS011;24370;51.986;4.666;2023-11-21T01:13:46;9.07;;;3.87;;
38615;SDS011;24370;51.986;4.666;2023-11-21T01:16:11;17.13;;;4.43;;
38615;SDS011;24370;51.986;4.666;2023-11-21T01:18:36;9.57;;;3.90;;
38615;SDS011;24370;51.986;4.666;2023-11-21T01:21:02;11.10;;;3.90;;
38615;SDS011;24370;51.986;4.666;2023-11-21T01:23:28;8.77;;;3.97;;
38615;SDS011;24370;51.986;4.666;2023-11-21T01:25:55;11.63;;;4.30;;
38615;SDS011;24370;51.986;4.666;2023-11-21T01:28:21;7.93;;;4.50;;
38615;SDS011;24370;51.986;4.666;2023-11-21T01:30:47;9.50;;;3.80;;
38615;SDS011;24370;51.986;4.666;2023-11-21T01:33:13;9.40;;;4.50;;
38615;SDS011;24370;51.986;4.666;2023-11-21T01:35:40;15.83;;;4.47;;
38615;SDS011;24370;51.986;4.666;2023-11-21T01:38:06;9.30;;;3.77;;
38615;SDS011;24370;51.986;4.666;2023-11-21T01:40:33;6.03;;;3.83;;
38615;SDS011;24370;51.986;4.666;2023-11-21T01:42:58;9.20;;;4.37;;
38615;SDS011;24370;51.986;4.666;2023-11-21T01:45:24;9.73;;;3.30;;
38615;SDS011;24370;51.986;4.666;2023-11-21T01:47:50;9.23;;;4.77;;
38615;SDS011;24370;51.986;4.666;2023-11-21T01:50:16;10.40;;;4.27;;
38615;SDS011;24370;51.986;4.666;2023-11-21T01:52:47;11.33;;;4.13;;
38615;SDS011;24370;51.986;4.666;2023-11-21T01:55:13;12.20;;;4.13;;
38615;SDS011;24370;51.986;4.666;2023-11-21T01:57:43;11.07;;;4.53;;
38615;SDS011;24370;51.986;4.666;2023-11-21T02:00:08;8.67;;;3.23;;
38615;SDS011;24370;51.986;4.666;2023-11-21T02:02:43;11.53;;;4.37;;
38615;SDS011;24370;51.986;4.666;2023-11-21T02:05:10;13.43;;;4.93;;
38615;SDS011;24370;51.986;4.666;2023-11-21T02:07:43;12.70;;;4.70;;
38615;SDS011;24370;51.986;4.666;2023-11-21T02:10:09;8.50;;;3.97;;
38615;SDS011;24370;51.986;4.666;2023-11-21T02:12:39;9.37;;;4.07;;
38615;SDS011;24370;51.986;4.666;2023-11-21T02:15:05;14.33;;;4.30;;
38615;SDS011;24370;51.986;4.666;2023-11-21T02:17:35;10.93;;;4.87;;
38615;SDS011;24370;51.986;4.666;2023-11-21T02:20:01;8.40;;;4.80;;
38615;SDS011;24370;51.986;4.666;2023-11-21T02:22:28;7.50;;;3.53;;
38615;SDS011;24370;51.986;4.666;2023-11-21T02:24:56;10.87;;;4.60;;
38615;SDS011;24370;51.986;4.666;2023-11-21T02:27:22;9.07;;;4.17;;
38615;SDS011;24370;51.986;4.666;2023-11-21T02:29:49;9.57;;;4.67;;
38615;SDS011;24370;51.986;4.666;2023-11-21T02:32:14;8.10;;;4.47;;
38615;SDS011;24370;51.986;4.666;2023-11-21T02:34:42;16.33;;;4.77;;
38615;SDS011;24370;51.986;4.666;2023-11-21T02:37:08;15.37;;;5.23;;
38615;SDS011;24370;51.986;4.666;2023-11-21T02:39:34;8.90;;;4.47;;
38615;SDS011;24370;51.986;4.666;2023-11-21T02:41:59;10.07;;;4.10;;
38615;SDS011;24370;51.986;4.666;2023-11-21T02:44:25;13.03;;;4.93;;
38615;SDS011;24370;51.986;4.666;2023-11-21T02:46:51;10.10;;;4.30;;
38615;SDS011;24370;51.986;4.666;2023-11-21T02:49:16;17.00;;;4.23;;
38615;SDS011;24370;51.986;4.666;2023-11-21T02:51:42;10.57;;;4.77;;
38615;SDS011;24370;51.986;4.666;2023-11-21T02:54:07;9.03;;;4.20;;
38615;SDS011;24370;51.986;4.666;2023-11-21T02:56:33;8.83;;;4.00;;
38615;SDS011;24370;51.986;4.666;2023-11-21T02:58:59;11.07;;;4.23;;
38615;SDS011;24370;51.986;4.666;2023-11-21T03:01:26;11.20;;;3.90;;
38615;SDS011;24370;51.986;4.666;2023-11-21T03:03:52;9.70;;;3.83;;
38615;SDS011;24370;51.986;4.666;2023-11-21T03:06:19;9.80;;;3.90;;
38615;SDS011;24370;51.986;4.666;2023-11-21T03:08:44;10.93;;;4.63;;
38615;SDS011;24370;51.986;4.666;2023-11-21T03:11:10;7.90;;;4.00;;
38615;SDS011;24370;51.986;4.666;2023-11-21T03:13:35;6.10;;;3.70;;
38615;SDS011;24370;51.986;4.666;2023-11-21T03:16:01;14.50;;;4.40;;
38615;SDS011;24370;51.986;4.666;2023-11-21T03:18:26;7.97;;;3.73;;
38615;SDS011;24370;51.986;4.666;2023-11-21T03:20:54;11.47;;;4.20;;
38615;SDS011;24370;51.986;4.666;2023-11-21T03:23:19;12.63;;;4.73;;
38615;SDS011;24370;51.986;4.666;2023-11-21T03:25:45;10.97;;;3.70;;
38615;SDS011;24370;51.986;4.666;2023-11-21T03:28:10;10.47;;;4.23;;
38615;SDS011;24370;51.986;4.666;2023-11-21T03:30:36;13.73;;;4.07;;
38615;SDS011;24370;51.986;4.666;2023-11-21T03:33:01;7.77;;;3.90;;
38615;SDS011;24370;51.986;4.666;2023-11-21T03:35:27;7.40;;;4.20;;
38615;SDS011;24370;51.986;4.666;2023-11-21T03:37:53;11.00;;;3.70;;
38615;SDS011;24370;51.986;4.666;2023-11-21T03:40:18;8.47;;;4.33;;
38615;SDS011;24370;51.986;4.666;2023-11-21T03:42:43;14.10;;;4.90;;
38615;SDS011;24370;51.986;4.666;2023-11-21T03:45:09;8.50;;;3.40;;
38615;SDS011;24370;51.986;4.666;2023-11-21T03:47:35;11.77;;;3.97;;
38615;SDS011;24370;51.986;4.666;2023-11-21T03:50:00;9.87;;;3.93;;
38615;SDS011;24370;51.986;4.666;2023-11-21T03:52:25;16.50;;;4.83;;
38615;SDS011;24370;51.986;4.666;2023-11-21T03:54:52;10.63;;;3.43;;
38615;SDS011;24370;51.986;4.666;2023-11-21T03:57:17;10.00;;;4.17;;
38615;SDS011;24370;51.986;4.666;2023-11-21T03:59:43;9.90;;;3.87;;
38615;SDS011;24370;51.986;4.666;2023-11-21T04:02:08;9.50;;;3.67;;
38615;SDS011;24370;51.986;4.666;2023-11-21T04:04:34;8.33;;;4.50;;
38615;SDS011;24370;51.986;4.666;2023-11-21T04:07:00;13.27;;;3.93;;
38615;SDS011;24370;51.986;4.666;2023-11-21T04:09:25;17.20;;;4.70;;
38615;SDS011;24370;51.986;4.666;2023-11-21T04:11:51;7.53;;;3.80;;
38615;SDS011;24370;51.986;4.666;2023-11-21T04:14:17;8.67;;;3.77;;
38615;SDS011;24370;51.986;4.666;2023-11-21T04:16:43;7.43;;;3.70;;
38615;SDS011;24370;51.986;4.666;2023-11-21T04:19:08;10.23;;;3.93;;
38615;SDS011;24370;51.986;4.666;2023-11-21T04:21:39;6.97;;;3.57;;
38615;SDS011;24370;51.986;4.666;2023-11-21T04:24:05;8.93;;;4.20;;
38615;SDS011;24370;51.986;4.666;2023-11-21T04:26:31;9.77;;;3.37;;
38615;SDS011;24370;51.986;4.666;2023-11-21T04:28:57;7.90;;;3.40;;
38615;SDS011;24370;51.986;4.666;2023-11-21T04:31:22;11.33;;;3.90;;
38615;SDS011;24370;51.986;4.666;2023-11-21T04:33:48;9.40;;;3.57;;
38615;SDS011;24370;51.986;4.666;2023-11-21T04:36:13;7.53;;;3.80;;
38615;SDS011;24370;51.986;4.666;2023-11-21T04:38:39;7.70;;;3.53;;
38615;SDS011;24370;51.986;4.666;2023-11-21T04:41:04;4.80;;;2.80;;
38615;SDS011;24370;51.986;4.666;2023-11-21T04:43:30;8.20;;;3.30;;
38615;SDS011;24370;51.986;4.666;2023-11-21T04:45:55;9.27;;;3.57;;
38615;SDS011;24370;51.986;4.666;2023-11-21T04:48:20;6.80;;;3.20;;
38615;SDS011;24370;51.986;4.666;2023-11-21T04:50:46;8.20;;;2.80;;
38615;SDS011;24370;51.986;4.666;2023-11-21T04:53:11;11.57;;;3.83;;
38615;SDS011;24370;51.986;4.666;2023-11-21T04:55:39;5.63;;;3.47;;
38615;SDS011;24370;51.986;4.666;2023-11-21T04:58:05;11.75;;;4.05;;
38615;SDS011;24370;51.986;4.666;2023-11-21T05:00:30;7.47;;;3.63;;
38615;SDS011;24370;51.986;4.666;2023-11-21T05:02:56;7.50;;;3.38;;
38615;SDS011;24370;51.986;4.666;2023-11-21T05:05:21;11.20;;;3.20;;
38615;SDS011;24370;51.986;4.666;2023-11-21T05:07:47;7.70;;;3.33;;
38615;SDS011;24370;51.986;4.666;2023-11-21T05:10:14;7.40;;;3.80;;
38615;SDS011;24370;51.986;4.666;2023-11-21T05:12:40;9.70;;;4.00;;
38615;SDS011;24370;51.986;4.666;2023-11-21T05:15:07;8.90;;;3.80;;
38615;SDS011;24370;51.986;4.666;2023-11-21T05:17:39;10.83;;;3.80;;
38615;SDS011;24370;51.986;4.666;2023-11-21T05:20:09;9.20;;;3.58;;
38615;SDS011;24370;51.986;4.666;2023-11-21T05:22:36;8.53;;;3.70;;
38615;SDS011;24370;51.986;4.666;2023-11-21T05:25:02;9.63;;;4.10;;
38615;SDS011;24370;51.986;4.666;2023-11-21T05:27:29;6.63;;;3.60;;
38615;SDS011;24370;51.986;4.666;2023-11-21T05:29:55;10.13;;;4.10;;
38615;SDS011;24370;51.986;4.666;2023-11-21T05:32:21;7.63;;;4.33;;
38615;SDS011;24370;51.986;4.666;2023-11-21T05:34:47;12.53;;;5.70;;
38615;SDS011;24370;51.986;4.666;2023-11-21T05:37:13;6.37;;;3.50;;
38615;SDS011;24370;51.986;4.666;2023-11-21T05:39:38;6.73;;;3.53;;
38615;SDS011;24370;51.986;4.666;2023-11-21T05:42:04;9.70;;;4.23;;
38615;SDS011;24370;51.986;4.666;2023-11-21T05:44:30;9.07;;;4.13;;
38615;SDS011;24370;51.986;4.666;2023-11-21T05:46:55;9.27;;;3.67;;
38615;SDS011;24370;51.986;4.666;2023-11-21T05:49:20;5.00;;;3.30;;
38615;SDS011;24370;51.986;4.666;2023-11-21T05:51:46;12.40;;;4.63;;
38615;SDS011;24370;51.986;4.666;2023-11-21T05:54:12;5.97;;;3.40;;
38615;SDS011;24370;51.986;4.666;2023-11-21T05:56:37;7.07;;;3.37;;
38615;SDS011;24370;51.986;4.666;2023-11-21T05:59:03;5.50;;;3.30;;
38615;SDS011;24370;51.986;4.666;2023-11-21T06:01:28;9.97;;;4.13;;
38615;SDS011;24370;51.986;4.666;2023-11-21T06:03:54;8.90;;;3.33;;
38615;SDS011;24370;51.986;4.666;2023-11-21T06:06:22;7.20;;;3.27;;
38615;SDS011;24370;51.986;4.666;2023-11-21T06:08:49;5.97;;;2.90;;
38615;SDS011;24370;51.986;4.666;2023-11-21T06:11:15;7.43;;;2.80;;
38615;SDS011;24370;51.986;4.666;2023-11-21T06:13:41;9.33;;;3.30;;
38615;SDS011;24370;51.986;4.666;2023-11-21T06:16:07;5.43;;;3.27;;
38615;SDS011;24370;51.986;4.666;2023-11-21T06:18:32;6.57;;;2.97;;
38615;SDS011;24370;51.986;4.666;2023-11-21T06:20:58;6.00;;;3.20;;
38615;SDS011;24370;51.986;4.666;2023-11-21T06:23:25;5.23;;;2.57;;
38615;SDS011;24370;51.986;4.666;2023-11-21T06:25:51;7.17;;;2.83;;
38615;SDS011;24370;51.986;4.666;2023-11-21T06:28:16;5.77;;;2.90;;
38615;SDS011;24370;51.986;4.666;2023-11-21T06:30:42;5.47;;;2.90;;
38615;SDS011;24370;51.986;4.666;2023-11-21T06:33:09;6.07;;;3.23;;
38615;SDS011;24370;51.986;4.666;2023-11-21T06:35:34;4.27;;;2.57;;
38615;SDS011;24370;51.986;4.666;2023-11-21T06:38:00;6.03;;;2.70;;
38615;SDS011;24370;51.986;4.666;2023-11-21T06:40:25;9.50;;;3.00;;
38615;SDS011;24370;51.986;4.666;2023-11-21T06:42:50;7.17;;;2.57;;
38615;SDS011;24370;51.986;4.666;2023-11-21T06:45:16;6.17;;;2.80;;
38615;SDS011;24370;51.986;4.666;2023-11-21T06:47:42;4.40;;;3.03;;
38615;SDS011;24370;51.986;4.666;2023-11-21T06:50:07;8.47;;;3.03;;
38615;SDS011;24370;51.986;4.666;2023-11-21T06:52:33;4.87;;;2.30;;
38615;SDS011;24370;51.986;4.666;2023-11-21T06:54:58;5.67;;;2.97;;
38615;SDS011;24370;51.986;4.666;2023-11-21T06:57:24;4.87;;;2.60;;
38615;SDS011;24370;51.986;4.666;2023-11-21T06:59:50;6.20;;;2.50;;
38615;SDS011;24370;51.986;4.666;2023-11-21T07:02:16;7.03;;;2.97;;
38615;SDS011;24370;51.986;4.666;2023-11-21T07:04:43;5.37;;;2.90;;
38615;SDS011;24370;51.986;4.666;2023-11-21T07:07:10;4.43;;;2.70;;
38615;SDS011;24370;51.986;4.666;2023-11-21T07:09:35;5.17;;;2.60;;
38615;SDS011;24370;51.986;4.666;2023-11-21T07:12:01;9.93;;;3.70;;
38615;SDS011;24370;51.986;4.666;2023-11-21T07:14:28;5.10;;;2.50;;
38615;SDS011;24370;51.986;4.666;2023-11-21T07:16:54;6.07;;;2.67;;
38615;SDS011;24370;51.986;4.666;2023-11-21T07:19:20;6.97;;;2.60;;
38615;SDS011;24370;51.986;4.666;2023-11-21T07:21:46;8.53;;;4.20;;
38615;SDS011;24370;51.986;4.666;2023-11-21T07:24:15;8.53;;;3.50;;
38615;SDS011;24370;51.986;4.666;2023-11-21T07:26:41;8.93;;;3.77;;
38615;SDS011;24370;51.986;4.666;2023-11-21T07:29:06;12.73;;;4.87;;
38615;SDS011;24370;51.986;4.666;2023-11-21T07:31:31;7.93;;;3.70;;
38615;SDS011;24370;51.986;4.666;2023-11-21T07:33:59;6.37;;;2.50;;
38615;SDS011;24370;51.986;4.666;2023-11-21T07:36:26;10.77;;;3.40;;
38615;SDS011;24370;51.986;4.666;2023-11-21T07:38:51;8.97;;;3.67;;
38615;SDS011;24370;51.986;4.666;2023-11-21T07:41:17;10.80;;;4.50;;
38615;SDS011;24370;51.986;4.666;2023-11-21T07:43:43;12.03;;;4.13;;
38615;SDS011;24370;51.986;4.666;2023-11-21T07:46:09;13.50;;;4.90;;
38615;SDS011;24370;51.986;4.666;2023-11-21T07:48:37;15.00;;;4.17;;
38615;SDS011;24370;51.986;4.666;2023-11-21T07:51:11;9.20;;;3.57;;
38615;SDS011;24370;51.986;4.666;2023-11-21T07:53:38;7.57;;;3.40;;
38615;SDS011;24370;51.986;4.666;2023-11-21T07:56:04;3.30;;;2.40;;
38615;SDS011;24370;51.986;4.666;2023-11-21T07:58:31;8.33;;;2.97;;
38615;SDS011;24370;51.986;4.666;2023-11-21T08:00:58;11.67;;;2.70;;
38615;SDS011;24370;51.986;4.666;2023-11-21T08:03:25;3.83;;;2.07;;
38615;SDS011;24370;51.986;4.666;2023-11-21T08:05:57;6.23;;;3.13;;
38615;SDS011;24370;51.986;4.666;2023-11-21T08:08:23;6.13;;;2.67;;
38615;SDS011;24370;51.986;4.666;2023-11-21T08:10:48;4.80;;;2.73;;
38615;SDS011;24370;51.986;4.666;2023-11-21T08:13:21;3.53;;;2.08;;
38615;SDS011;24370;51.986;4.666;2023-11-21T08:15:50;5.90;;;2.93;;
38615;SDS011;24370;51.986;4.666;2023-11-21T08:18:18;5.53;;;2.60;;
38615;SDS011;24370;51.986;4.666;2023-11-21T08:20:44;6.40;;;2.70;;
38615;SDS011;24370;51.986;4.666;2023-11-21T08:23:12;6.47;;;2.33;;
38615;SDS011;24370;51.986;4.666;2023-11-21T08:25:40;5.07;;;2.53;;
38615;SDS011;24370;51.986;4.666;2023-11-21T08:28:07;5.20;;;2.27;;
38615;SDS011;24370;51.986;4.666;2023-11-21T08:30:32;9.07;;;2.90;;
38615;SDS011;24370;51.986;4.666;2023-11-21T08:32:58;5.87;;;2.97;;
38615;SDS011;24370;51.986;4.666;2023-11-21T08:35:23;7.23;;;3.00;;
38615;SDS011;24370;51.986;4.666;2023-11-21T08:37:52;6.10;;;2.60;;
38615;SDS011;24370;51.986;4.666;2023-11-21T08:40:18;12.23;;;3.10;;
38615;SDS011;24370;51.986;4.666;2023-11-21T08:42:46;6.77;;;2.77;;
38615;SDS011;24370;51.986;4.666;2023-11-21T08:45:11;5.03;;;2.83;;
38615;SDS011;24370;51.986;4.666;2023-11-21T08:47:38;6.93;;;3.00;;
38615;SDS011;24370;51.986;4.666;2023-11-21T08:50:04;6.80;;;2.67;;
38615;SDS011;24370;51.986;4.666;2023-11-21T08:52:32;9.30;;;3.57;;
38615;SDS011;24370;51.986;4.666;2023-11-21T08:54:58;6.87;;;3.13;;
38615;SDS011;24370;51.986;4.666;2023-11-21T08:57:27;6.93;;;2.47;;
38615;SDS011;24370;51.986;4.666;2023-11-21T08:59:53;11.43;;;3.07;;
38615;SDS011;24370;51.986;4.666;2023-11-21T09:02:23;6.20;;;3.27;;
38615;SDS011;24370;51.986;4.666;2023-11-21T09:04:51;5.27;;;3.03;;
38615;SDS011;24370;51.986;4.666;2023-11-21T09:07:19;7.97;;;3.50;;
38615;SDS011;24370;51.986;4.666;2023-11-21T09:09:46;9.50;;;3.83;;
38615;SDS011;24370;51.986;4.666;2023-11-21T09:12:11;9.13;;;3.60;;
38615;SDS011;24370;51.986;4.666;2023-11-21T09:14:37;8.07;;;3.50;;
38615;SDS011;24370;51.986;4.666;2023-11-21T09:17:03;12.47;;;3.33;;
38615;SDS011;24370;51.986;4.666;2023-11-21T09:19:28;10.43;;;4.13;;
38615;SDS011;24370;51.986;4.666;2023-11-21T09:21:54;13.23;;;4.33;;
38615;SDS011;24370;51.986;4.666;2023-11-21T09:24:19;11.70;;;4.30;;
38615;SDS011;24370;51.986;4.666;2023-11-21T09:26:45;7.13;;;3.90;;
38615;SDS011;24370;51.986;4.666;2023-11-21T09:29:10;13.17;;;4.23;;
38615;SDS011;24370;51.986;4.666;2023-11-21T09:31:35;8.27;;;3.90;;
38615;SDS011;24370;51.986;4.666;2023-11-21T09:34:01;7.73;;;3.60;;
38615;SDS011;24370;51.986;4.666;2023-11-21T09:36:27;6.97;;;3.83;;
38615;SDS011;24370;51.986;4.666;2023-11-21T09:38:55;8.50;;;3.30;;
38615;SDS011;24370;51.986;4.666;2023-11-21T09:41:26;6.20;;;3.00;;
38615;SDS011;24370;51.986;4.666;2023-11-21T09:44:04;5.50;;;2.50;;
38615;SDS011;24370;51.986;4.666;2023-11-21T09:46:36;4.23;;;1.97;;
38615;SDS011;24370;51.986;4.666;2023-11-21T09:49:05;7.23;;;3.10;;
38615;SDS011;24370;51.986;4.666;2023-11-21T09:51:37;7.18;;;2.80;;
38615;SDS011;24370;51.986;4.666;2023-11-21T09:54:06;6.13;;;2.87;;
38615;SDS011;24370;51.986;4.666;2023-11-21T09:56:35;6.90;;;2.77;;
38615;SDS011;24370;51.986;4.666;2023-11-21T09:59:01;5.03;;;2.50;;
38615;SDS011;24370;51.986;4.666;2023-11-21T10:01:35;5.97;;;2.38;;
38615;SDS011;24370;51.986;4.666;2023-11-21T10:04:02;6.13;;;2.50;;
38615;SDS011;24370;51.986;4.666;2023-11-21T10:06:28;6.00;;;2.47;;
38615;SDS011;24370;51.986;4.666;2023-11-21T10:08:55;4.72;;;2.17;;
38615;SDS011;24370;51.986;4.666;2023-11-21T10:11:36;6.77;;;2.67;;
38615;SDS011;24370;51.986;4.666;2023-11-21T10:14:06;8.40;;;3.20;;
38615;SDS011;24370;51.986;4.666;2023-11-21T10:16:37;7.30;;;3.10;;
38615;SDS011;24370;51.986;4.666;2023-11-21T10:19:04;6.77;;;2.67;;
38615;SDS011;24370;51.986;4.666;2023-11-21T10:21:32;5.40;;;2.90;;
38615;SDS011;24370;51.986;4.666;2023-11-21T10:23:58;7.17;;;3.00;;
38615;SDS011;24370;51.986;4.666;2023-11-21T10:26:23;8.17;;;3.90;;
38615;SDS011;24370;51.986;4.666;2023-11-21T10:28:56;7.73;;;3.33;;
38615;SDS011;24370;51.986;4.666;2023-11-21T10:31:22;6.10;;;3.20;;
38615;SDS011;24370;51.986;4.666;2023-11-21T10:33:49;8.43;;;3.27;;
38615;SDS011;24370;51.986;4.666;2023-11-21T10:36:24;5.37;;;2.77;;
38615;SDS011;24370;51.986;4.666;2023-11-21T10:38:51;5.43;;;2.57;;
38615;SDS011;24370;51.986;4.666;2023-11-21T10:41:18;7.47;;;2.83;;
38615;SDS011;24370;51.986;4.666;2023-11-21T10:43:44;8.83;;;3.43;;
38615;SDS011;24370;51.986;4.666;2023-11-21T10:46:09;10.63;;;3.40;;
38615;SDS011;24370;51.986;4.666;2023-11-21T10:48:35;5.77;;;2.77;;
38615;SDS011;24370;51.986;4.666;2023-11-21T10:51:01;8.13;;;3.47;;
38615;SDS011;24370;51.986;4.666;2023-11-21T10:53:32;6.57;;;3.20;;
38615;SDS011;24370;51.986;4.666;2023-11-21T10:56:08;12.40;;;4.87;;
38615;SDS011;24370;51.986;4.666;2023-11-21T10:58:42;7.73;;;3.63;;
38615;SDS011;24370;51.986;4.666;2023-11-21T11:01:08;8.97;;;4.47;;
38615;SDS011;24370;51.986;4.666;2023-11-21T11:03:36;10.40;;;4.27;;
38615;SDS011;24370;51.986;4.666;2023-11-21T11:06:05;9.37;;;3.70;;
38615;SDS011;24370;51.986;4.666;2023-11-21T11:08:36;7.47;;;3.47;;
38615;SDS011;24370;51.986;4.666;2023-11-21T11:11:02;14.53;;;4.83;;
38615;SDS011;24370;51.986;4.666;2023-11-21T11:13:29;10.80;;;4.53;;
38615;SDS011;24370;51.986;4.666;2023-11-21T11:15:57;9.30;;;4.90;;
38615;SDS011;24370;51.986;4.666;2023-11-21T11:18:26;8.33;;;4.40;;
38615;SDS011;24370;51.986;4.666;2023-11-21T11:20:56;10.53;;;4.30;;
38615;SDS011;24370;51.986;4.666;2023-11-21T11:34:29;8.40;;;4.15;;
38615;SDS011;24370;51.986;4.666;2023-11-21T11:37:04;8.50;;;3.13;;
38615;SDS011;24370;51.986;4.666;2023-11-21T11:42:06;7.23;;;3.00;;
38615;SDS011;24370;51.986;4.666;2023-11-21T11:52:35;6.83;;;2.90;;
38615;SDS011;24370;51.986;4.666;2023-11-21T11:55:05;4.93;;;2.43;;
38615;SDS011;24370;51.986;4.666;2023-11-21T11:57:32;4.97;;;1.83;;
38615;SDS011;24370;51.986;4.666;2023-11-21T12:00:10;8.20;;;3.10;;
38615;SDS011;24370;51.986;4.666;2023-11-21T12:02:46;4.97;;;3.03;;
38615;SDS011;24370;51.986;4.666;2023-11-21T12:05:17;4.97;;;2.67;;
38615;SDS011;24370;51.986;4.666;2023-11-21T12:07:49;7.57;;;3.83;;
38615;SDS011;24370;51.986;4.666;2023-11-21T12:10:19;9.23;;;4.43;;
38615;SDS011;24370;51.986;4.666;2023-11-21T12:12:49;11.23;;;4.03;;
38615;SDS011;24370;51.986;4.666;2023-11-21T12:15:15;10.63;;;3.72;;
38615;SDS011;24370;51.986;4.666;2023-11-21T12:17:41;7.18;;;3.22;;
38615;SDS011;24370;51.986;4.666;2023-11-21T12:20:08;12.63;;;3.75;;
38615;SDS011;24370;51.986;4.666;2023-11-21T12:22:44;10.23;;;3.30;;
38615;SDS011;24370;51.986;4.666;2023-11-21T12:27:44;12.85;;;3.92;;
38615;SDS011;24370;51.986;4.666;2023-11-21T12:30:15;9.27;;;3.97;;
38615;SDS011;24370;51.986;4.666;2023-11-21T12:32:42;9.67;;;3.60;;
38615;SDS011;24370;51.986;4.666;2023-11-21T12:35:09;8.10;;;3.70;;
38615;SDS011;24370;51.986;4.666;2023-11-21T12:37:36;9.50;;;4.20;;
38615;SDS011;24370;51.986;4.666;2023-11-21T12:40:04;15.87;;;4.60;;
38615;SDS011;24370;51.986;4.666;2023-11-21T12:42:32;10.93;;;3.73;;
38615;SDS011;24370;51.986;4.666;2023-11-21T12:47:43;11.80;;;5.07;;
38615;SDS011;24370;51.986;4.666;2023-11-21T12:50:10;13.30;;;4.70;;
38615;SDS011;24370;51.986;4.666;2023-11-21T12:52:42;10.15;;;4.20;;
38615;SDS011;24370;51.986;4.666;2023-11-21T12:55:13;10.57;;;4.07;;
38615;SDS011;24370;51.986;4.666;2023-11-21T12:57:42;10.83;;;4.67;;
38615;SDS011;24370;51.986;4.666;2023-11-21T13:00:34;11.13;;;4.47;;
38615;SDS011;24370;51.986;4.666;2023-11-21T13:03:04;9.63;;;4.20;;
38615;SDS011;24370;51.986;4.666;2023-11-21T13:05:36;10.80;;;3.60;;
38615;SDS011;24370;51.986;4.666;2023-11-21T13:08:09;8.70;;;4.17;;
38615;SDS011;24370;51.986;4.666;2023-11-21T13:10:38;14.70;;;4.23;;
38615;SDS011;24370;51.986;4.666;2023-11-21T13:13:06;8.37;;;4.00;;
38615;SDS011;24370;51.986;4.666;2023-11-21T13:15:39;12.10;;;4.97;;
38615;SDS011;24370;51.986;4.666;2023-11-21T13:18:06;10.95;;;4.15;;
38615;SDS011;24370;51.986;4.666;2023-11-21T13:20:32;9.00;;;4.35;;
38615;SDS011;24370;51.986;4.666;2023-11-21T13:22:58;9.67;;;4.07;;
38615;SDS011;24370;51.986;4.666;2023-11-21T13:25:28;10.45;;;3.95;;
38615;SDS011;24370;51.986;4.666;2023-11-21T13:27:54;7.27;;;3.63;;
38615;SDS011;24370;51.986;4.666;2023-11-21T13:30:20;10.50;;;4.50;;
38615;SDS011;24370;51.986;4.666;2023-11-21T13:32:54;11.17;;;4.90;;
38615;SDS011;24370;51.986;4.666;2023-11-21T13:35:27;12.32;;;5.15;;
38615;SDS011;24370;51.986;4.666;2023-11-21T13:38:02;9.53;;;4.00;;
38615;SDS011;24370;51.986;4.666;2023-11-21T13:40:31;10.00;;;4.90;;
38615;SDS011;24370;51.986;4.666;2023-11-21T13:43:04;9.90;;;4.38;;
38615;SDS011;24370;51.986;4.666;2023-11-21T13:45:34;13.00;;;4.83;;
38615;SDS011;24370;51.986;4.666;2023-11-21T13:48:00;10.83;;;4.40;;
38615;SDS011;24370;51.986;4.666;2023-11-21T13:50:26;13.10;;;4.90;;
38615;SDS011;24370;51.986;4.666;2023-11-21T13:53:01;11.90;;;4.93;;
38615;SDS011;24370;51.986;4.666;2023-11-21T13:55:41;14.00;;;5.67;;
38615;SDS011;24370;51.986;4.666;2023-11-21T13:58:07;11.73;;;5.33;;
38615;SDS011;24370;51.986;4.666;2023-11-21T14:00:36;12.17;;;5.00;;
38615;SDS011;24370;51.986;4.666;2023-11-21T14:03:11;15.20;;;4.80;;
38615;SDS011;24370;51.986;4.666;2023-11-21T14:05:46;11.70;;;5.33;;
38615;SDS011;24370;51.986;4.666;2023-11-21T14:08:15;9.67;;;4.63;;
38615;SDS011;24370;51.986;4.666;2023-11-21T14:10:45;15.13;;;5.90;;
38615;SDS011;24370;51.986;4.666;2023-11-21T14:13:15;15.73;;;5.93;;
38615;SDS011;24370;51.986;4.666;2023-11-21T14:15:42;11.10;;;5.43;;
38615;SDS011;24370;51.986;4.666;2023-11-21T14:18:10;13.50;;;5.73;;
38615;SDS011;24370;51.986;4.666;2023-11-21T14:20:38;13.73;;;5.77;;
38615;SDS011;24370;51.986;4.666;2023-11-21T14:23:05;13.27;;;5.77;;
38615;SDS011;24370;51.986;4.666;2023-11-21T14:25:32;11.80;;;5.27;;
38615;SDS011;24370;51.986;4.666;2023-11-21T14:27:58;12.40;;;5.80;;
38615;SDS011;24370;51.986;4.666;2023-11-21T14:30:24;11.40;;;5.47;;
38615;SDS011;24370;51.986;4.666;2023-11-21T14:32:50;9.10;;;4.30;;
38615;SDS011;24370;51.986;4.666;2023-11-21T14:35:16;11.43;;;4.90;;
38615;SDS011;24370;51.986;4.666;2023-11-21T14:37:42;14.67;;;5.77;;
38615;SDS011;24370;51.986;4.666;2023-11-21T14:40:07;9.37;;;4.53;;
38615;SDS011;24370;51.986;4.666;2023-11-21T14:42:33;10.57;;;5.00;;
38615;SDS011;24370;51.986;4.666;2023-11-21T14:45:02;11.23;;;5.03;;
38615;SDS011;24370;51.986;4.666;2023-11-21T14:47:31;15.57;;;5.10;;
38615;SDS011;24370;51.986;4.666;2023-11-21T14:49:58;14.83;;;5.87;;
38615;SDS011;24370;51.986;4.666;2023-11-21T14:52:25;13.50;;;5.00;;
38615;SDS011;24370;51.986;4.666;2023-11-21T14:55:00;13.33;;;5.87;;
38615;SDS011;24370;51.986;4.666;2023-11-21T14:57:45;17.00;;;7.33;;
38615;SDS011;24370;51.986;4.666;2023-11-21T15:00:15;13.60;;;5.20;;
38615;SDS011;24370;51.986;4.666;2023-11-21T15:03:02;14.50;;;5.53;;
38615;SDS011;24370;51.986;4.666;2023-11-21T15:05:28;16.80;;;6.10;;
38615;SDS011;24370;51.986;4.666;2023-11-21T15:07:56;14.33;;;6.90;;
38615;SDS011;24370;51.986;4.666;2023-11-21T15:10:33;16.03;;;6.07;;